Welcome to Northern Hawkes Bay. New Zealand.
PWS Header
      nz Flag



Hit Counter


W3C Valid W3C Valid logo


    Wairoa

Select any of the Stations below to visit their websites.










Historic Data from Weather Underground
Select the location of interest below. Wairoa is the default. Please have patience, this Data is slow to load in.
Northern Hawkes Bay Historical Data
Daily Summary for June 4, 2017 Units:  Metric    English   Both
« Previous Day
Next Day »
Daily Weekly Monthly Yearly Custom
  High: Low: Average:
Temperature: 13.1 °C 7.8 °C 10.3 °C
Dew Point: 9.8 °C 6.1 °C 8.3 °C
Humidity: 99% 66% 88%
Wind Speed: 15.8km/h 0.0km/h 4.8km/h
Wind Gust: 21.9km/h - -
Wind- - WSW
Pressure: 1014.8 hPa 1008.7 hPa -
Precipitation: 9.9 mm    
Historical Graphs
 
 
Tabular Data for June 4, 2017
Time Temperature Dew Point Pressure Wind Wind Speed Wind Gust Humidity Rainfall Rate (Hourly) solar
00:02 10.8 °C 8.9 °C 1009.4 hPa West 5.0 km/h 13.4 km/h 88% 0.0 mm 0 W/m2
00:07 10.7 °C 8.9 °C 1009.4 hPa West 3.5 km/h 11.1 km/h 89% 0.0 mm 0 W/m2
00:12 10.6 °C 9.1 °C 1009.4 hPa West 8.7 km/h 12.2 km/h 90% 0.0 mm 0 W/m2
00:17 10.6 °C 9.2 °C 1009.4 hPa West 5.0 km/h 14.8 km/h 91% 0.0 mm 0 W/m2
00:22 10.6 °C 9.3 °C 1009.4 hPa West 7.2 km/h 15.8 km/h 92% 0.0 mm 0 W/m2
00:27 10.6 °C 9.5 °C 1009.0 hPa WSW 8.7 km/h 18.3 km/h 93% 0.0 mm 0 W/m2
00:32 10.5 °C 9.4 °C 1009.0 hPa SW 9.7 km/h 19.5 km/h 93% 0.0 mm 0 W/m2
00:37 10.5 °C 9.4 °C 1009.0 hPa WSW 11.1 km/h 19.5 km/h 93% 0.0 mm 0 W/m2
00:42 10.5 °C 9.4 °C 1009.0 hPa WSW 2.6 km/h 17.2 km/h 93% 0.5 mm 0 W/m2
00:47 10.4 °C 9.5 °C 1009.0 hPa WSW 5.0 km/h 13.4 km/h 94% 0.5 mm 0 W/m2
00:52 10.4 °C 9.5 °C 1009.4 hPa West 6.1 km/h 13.4 km/h 94% 1.0 mm 0 W/m2
00:57 10.5 °C 9.6 °C 1009.0 hPa WSW 3.5 km/h 17.2 km/h 94% 1.0 mm 0 W/m2
01:02 10.5 °C 9.6 °C 1009.4 hPa WSW 3.5 km/h 17.2 km/h 94% 1.0 mm 0 W/m2
01:07 10.5 °C 9.6 °C 1009.4 hPa West 3.5 km/h 14.8 km/h 94% 1.3 mm 0 W/m2
01:17 10.4 °C 9.5 °C 1009.0 hPa NNW 5.0 km/h 7.2 km/h 94% 1.3 mm 0 W/m2
01:22 10.2 °C 9.3 °C 1009.4 hPa NNE 3.5 km/h 7.2 km/h 94% 1.3 mm 0 W/m2
01:27 10.0 °C 9.1 °C 1009.0 hPa NNE 7.2 km/h 9.7 km/h 94% 1.3 mm 0 W/m2
01:32 9.8 °C 9.1 °C 1009.4 hPa North 5.0 km/h 9.7 km/h 95% 1.3 mm 0 W/m2
01:37 9.8 °C 9.1 °C 1009.0 hPa NW 1.1 km/h 9.7 km/h 95% 1.3 mm 0 W/m2
01:42 9.8 °C 9.1 °C 1009.0 hPa WNW 3.5 km/h 8.7 km/h 95% 0.5 mm 0 W/m2
01:47 9.9 °C 9.3 °C 1009.0 hPa NW 5.0 km/h 7.2 km/h 96% 0.3 mm 0 W/m2
01:52 10.0 °C 9.2 °C 1009.0 hPa WNW 3.5 km/h 8.7 km/h 95% 0.3 mm 0 W/m2
01:57 10.0 °C 9.2 °C 1009.0 hPa WNW 2.6 km/h 9.7 km/h 95% 0.3 mm 0 W/m2
02:03 9.9 °C 9.3 °C 1009.0 hPa West 2.6 km/h 9.7 km/h 96% 0.3 mm 0 W/m2
02:08 10.0 °C 9.2 °C 1009.0 hPa WNW 5.0 km/h 11.1 km/h 95% 0.0 mm 0 W/m2
02:13 10.1 °C 9.3 °C 1009.0 hPa WNW 3.5 km/h 11.1 km/h 95% 0.0 mm 0 W/m2
02:18 10.1 °C 9.3 °C 1009.0 hPa West 8.7 km/h 14.8 km/h 95% 0.0 mm 0 W/m2
02:23 10.3 °C 9.6 °C 1009.4 hPa West 7.2 km/h 14.8 km/h 95% 0.0 mm 0 W/m2
02:28 10.3 °C 9.4 °C 1009.0 hPa WNW 5.0 km/h 13.4 km/h 94% 0.0 mm 0 W/m2
02:33 10.3 °C 9.4 °C 1009.0 hPa West 6.1 km/h 13.4 km/h 94% 0.0 mm 0 W/m2
02:38 10.3 °C 9.2 °C 1009.0 hPa WSW 3.5 km/h 13.4 km/h 93% 0.0 mm 0 W/m2
02:43 10.3 °C 9.2 °C 1009.4 hPa West 8.7 km/h 17.2 km/h 93% 0.0 mm 0 W/m2
02:48 10.3 °C 9.1 °C 1009.0 hPa West 7.2 km/h 17.2 km/h 92% 0.0 mm 0 W/m2
02:53 10.3 °C 8.9 °C 1009.0 hPa WSW 6.1 km/h 15.8 km/h 91% 0.0 mm 0 W/m2
02:58 10.3 °C 8.7 °C 1009.0 hPa WSW 8.7 km/h 15.8 km/h 90% 0.0 mm 0 W/m2
03:03 10.2 °C 8.6 °C 1009.0 hPa WSW 8.7 km/h 14.8 km/h 90% 0.0 mm 0 W/m2
03:08 10.2 °C 8.6 °C 1009.0 hPa West 5.0 km/h 14.8 km/h 90% 0.0 mm 0 W/m2
03:13 10.1 °C 8.4 °C 1009.0 hPa West 5.0 km/h 14.8 km/h 89% 0.0 mm 0 W/m2
03:18 10.0 °C 8.3 °C 1009.0 hPa West 7.2 km/h 13.4 km/h 89% 0.0 mm 0 W/m2
03:23 10.0 °C 8.3 °C 1009.0 hPa West 3.5 km/h 13.4 km/h 89% 0.0 mm 0 W/m2
03:28 10.0 °C 8.3 °C 1009.0 hPa WSW 2.6 km/h 12.2 km/h 89% 0.0 mm 0 W/m2
03:33 9.9 °C 8.3 °C 1009.4 hPa West 2.6 km/h 8.7 km/h 90% 0.0 mm 0 W/m2
03:38 9.8 °C 8.2 °C 1008.7 hPa NW 2.6 km/h 8.7 km/h 90% 0.0 mm 0 W/m2
03:43 9.5 °C 7.8 °C 1008.7 hPa NW 1.1 km/h 7.2 km/h 89% 0.0 mm 0 W/m2
03:48 9.1 °C 7.4 °C 1009.0 hPa NNW 2.6 km/h 6.1 km/h 89% 0.0 mm 0 W/m2
03:53 8.9 °C 7.5 °C 1008.7 hPa NW 2.6 km/h 6.1 km/h 91% 0.0 mm 0 W/m2
03:58 8.7 °C 7.3 °C 1008.7 hPa NW 1.1 km/h 6.1 km/h 91% 0.0 mm 0 W/m2
04:03 8.5 °C 7.3 °C 1008.7 hPa NNW 2.6 km/h 6.1 km/h 92% 0.0 mm 0 W/m2
04:08 8.2 °C 7.0 °C 1008.7 hPa North 1.1 km/h 3.5 km/h 92% 0.0 mm 0 W/m2
04:13 8.1 °C 6.9 °C 1009.0 hPa North 1.1 km/h 3.5 km/h 92% 0.0 mm 0 W/m2
04:18 8.0 °C 6.9 °C 1008.7 hPa North 2.6 km/h 3.5 km/h 93% 0.0 mm 0 W/m2
04:23 7.9 °C 6.8 °C 1008.7 hPa NNE 1.1 km/h 3.5 km/h 93% 0.0 mm 0 W/m2
04:28 7.8 °C 6.9 °C 1008.7 hPa NNE 1.1 km/h 3.5 km/h 94% 0.0 mm 0 W/m2
04:33 7.8 °C 6.9 °C 1008.7 hPa NNE 2.6 km/h 6.1 km/h 94% 0.0 mm 0 W/m2
04:38 7.8 °C 6.9 °C 1008.7 hPa NNE 5.0 km/h 7.2 km/h 94% 0.0 mm 0 W/m2
04:43 7.8 °C 7.1 °C 1008.7 hPa North 1.1 km/h 7.2 km/h 95% 0.0 mm 0 W/m2
04:48 7.8 °C 7.1 °C 1008.7 hPa NNW 2.6 km/h 7.2 km/h 95% 0.0 mm 0 W/m2
04:53 7.8 °C 7.2 °C 1009.0 hPa Calm   5.0 km/h 96% 0.0 mm 0 W/m2
04:58 7.9 °C 7.3 °C 1009.0 hPa NNW 2.6 km/h 5.0 km/h 96% 0.0 mm 0 W/m2
05:03 7.9 °C 7.3 °C 1009.0 hPa NNW 2.6 km/h 5.0 km/h 96% 0.0 mm 0 W/m2
05:08 7.8 °C 7.2 °C 1009.0 hPa Calm   5.0 km/h 96% 0.0 mm 0 W/m2
05:25 8.0 °C 7.4 °C 1009.0 hPa North 2.6 km/h 5.0 km/h 96% 0.0 mm 0 W/m2
05:30 8.1 °C 7.5 °C 1009.4 hPa NNE 2.6 km/h 5.0 km/h 96% 0.0 mm 0 W/m2
05:35 8.1 °C 7.5 °C 1009.4 hPa NE 1.1 km/h 5.0 km/h 96% 0.0 mm 0 W/m2
05:40 8.2 °C 7.8 °C 1009.0 hPa ENE 1.1 km/h 3.5 km/h 97% 0.0 mm 0 W/m2
05:45 8.3 °C 7.8 °C 1009.4 hPa NE 5.0 km/h 7.2 km/h 97% 0.0 mm 0 W/m2
05:50 8.4 °C 7.9 °C 1009.0 hPa NE 1.1 km/h 7.2 km/h 97% 0.0 mm 0 W/m2
05:55 8.3 °C 7.8 °C 1009.4 hPa NNE 5.0 km/h 8.7 km/h 97% 0.0 mm 0 W/m2
06:00 8.4 °C 7.9 °C 1009.4 hPa North 2.6 km/h 8.7 km/h 97% 0.0 mm 0 W/m2
06:05 8.5 °C 8.1 °C 1009.4 hPa North 2.6 km/h 8.7 km/h 97% 0.0 mm 0 W/m2
06:10 8.5 °C 8.1 °C 1009.4 hPa Calm   6.1 km/h 97% 0.0 mm 0 W/m2
06:15 8.6 °C 8.2 °C 1009.4 hPa Calm   6.1 km/h 97% 0.0 mm 0 W/m2
06:20 8.6 °C 8.2 °C 1009.7 hPa NNW 3.5 km/h 6.1 km/h 97% 0.0 mm 0 W/m2
06:26 8.8 °C 8.3 °C 1009.7 hPa NNW 2.6 km/h 5.0 km/h 97% 0.0 mm 0 W/m2
06:31 8.8 °C 8.5 °C 1009.7 hPa NNW 3.5 km/h 7.2 km/h 98% 0.0 mm 0 W/m2
06:36 9.0 °C 8.6 °C 1009.4 hPa NNW 1.1 km/h 7.2 km/h 97% 0.0 mm 0 W/m2
06:41 9.0 °C 8.6 °C 1009.7 hPa North 3.5 km/h 6.1 km/h 97% 0.0 mm 0 W/m2
06:46 9.0 °C 8.6 °C 1010.0 hPa NNW 2.6 km/h 6.1 km/h 97% 0.0 mm 0 W/m2
06:51 9.0 °C 8.6 °C 1009.7 hPa NW 2.6 km/h 9.7 km/h 97% 0.0 mm 0 W/m2
06:56 9.0 °C 8.6 °C 1009.7 hPa NW 1.1 km/h 9.7 km/h 97% 0.0 mm 0 W/m2
07:01 9.0 °C 8.6 °C 1009.7 hPa NW 3.5 km/h 5.0 km/h 97% 0.0 mm 0 W/m2
07:06 8.9 °C 8.6 °C 1009.7 hPa NW 2.6 km/h 6.1 km/h 98% 0.0 mm 0 W/m2
07:11 9.0 °C 8.6 °C 1009.7 hPa NW 1.1 km/h 6.1 km/h 97% 0.0 mm 0 W/m2
07:16 9.0 °C 8.6 °C 1010.0 hPa NNW 1.1 km/h 5.0 km/h 97% 0.0 mm 0 W/m2
07:21 8.8 °C 8.5 °C 1010.0 hPa NNW 1.1 km/h 5.0 km/h 98% 0.0 mm 0 W/m2
07:26 8.8 °C 8.5 °C 1010.0 hPa NNW 3.5 km/h 6.1 km/h 98% 0.0 mm 1 W/m2
07:31 8.8 °C 8.5 °C 1010.0 hPa NNW 1.1 km/h 6.1 km/h 98% 0.0 mm 2 W/m2
07:36 8.8 °C 8.5 °C 1010.0 hPa Calm   6.1 km/h 98% 0.0 mm 3 W/m2
07:41 8.8 °C 8.5 °C 1010.4 hPa NW 1.1 km/h 3.5 km/h 98% 0.0 mm 4 W/m2
07:46 8.9 °C 8.4 °C 1010.0 hPa NNW 2.6 km/h 5.0 km/h 97% 0.0 mm 7 W/m2
07:51 9.0 °C 8.6 °C 1010.4 hPa NW 2.6 km/h 5.0 km/h 97% 0.3 mm 7 W/m2
07:56 9.1 °C 8.7 °C 1010.4 hPa WNW 1.1 km/h 5.0 km/h 97% 0.3 mm 11 W/m2
08:01 9.2 °C 8.8 °C 1010.4 hPa West 2.6 km/h 6.1 km/h 97% 0.3 mm 9 W/m2
08:06 9.3 °C 8.8 °C 1010.4 hPa WNW 3.5 km/h 8.7 km/h 97% 0.3 mm 16 W/m2
08:11 9.3 °C 8.7 °C 1010.4 hPa NW 2.6 km/h 8.7 km/h 96% 0.3 mm 22 W/m2
08:16 9.3 °C 8.7 °C 1010.4 hPa Calm   7.2 km/h 96% 0.3 mm 26 W/m2
08:21 9.3 °C 8.7 °C 1010.4 hPa NNW 2.6 km/h 7.2 km/h 96% 0.3 mm 32 W/m2
08:26 9.3 °C 8.7 °C 1010.7 hPa NNW 1.1 km/h 5.0 km/h 96% 0.3 mm 52 W/m2
08:31 9.4 °C 8.8 °C 1010.4 hPa NNW 3.5 km/h 6.1 km/h 96% 0.3 mm 42 W/m2
08:36 9.4 °C 8.7 °C 1010.7 hPa NNW 3.5 km/h 6.1 km/h 95% 0.3 mm 68 W/m2
08:41 9.5 °C 8.7 °C 1010.7 hPa NNW 2.6 km/h 6.1 km/h 95% 0.3 mm 105 W/m2
08:46 9.9 °C 9.1 °C 1010.7 hPa NNW 3.5 km/h 5.0 km/h 95% 0.3 mm 139 W/m2
08:51 10.4 °C 9.5 °C 1010.7 hPa NW 3.5 km/h 5.0 km/h 94% 0.0 mm 163 W/m2
08:56 10.7 °C 9.8 °C 1010.7 hPa NW 3.5 km/h 6.1 km/h 94% 0.0 mm 113 W/m2
09:01 10.7 °C 9.4 °C 1010.7 hPa NW 3.5 km/h 9.7 km/h 92% 0.0 mm 98 W/m2
09:06 10.7 °C 9.3 °C 1010.7 hPa WNW 5.0 km/h 9.7 km/h 91% 0.0 mm 100 W/m2
09:11 10.7 °C 9.3 °C 1010.7 hPa West 6.1 km/h 14.8 km/h 91% 0.0 mm 88 W/m2
09:16 10.6 °C 9.1 °C 1011.1 hPa WSW 7.2 km/h 14.8 km/h 90% 0.0 mm 89 W/m2
09:21 10.6 °C 8.7 °C 1011.1 hPa WSW 7.2 km/h 14.8 km/h 88% 0.0 mm 87 W/m2
09:26 10.5 °C 8.4 °C 1011.1 hPa West 6.1 km/h 15.8 km/h 87% 0.0 mm 89 W/m2
09:31 10.4 °C 8.3 °C 1011.1 hPa WSW 14.8 km/h 20.9 km/h 87% 0.0 mm 85 W/m2
09:36 10.3 °C 8.2 °C 1011.1 hPa SW 9.7 km/h 20.9 km/h 87% 0.0 mm 82 W/m2
09:41 10.3 °C 8.2 °C 1011.1 hPa WSW 9.7 km/h 20.9 km/h 87% 0.0 mm 86 W/m2
09:46 10.2 °C 8.1 °C 1011.1 hPa WSW 5.0 km/h 15.8 km/h 87% 0.0 mm 82 W/m2
09:51 10.2 °C 8.3 °C 1011.1 hPa WSW 11.1 km/h 15.8 km/h 88% 0.0 mm 83 W/m2
09:56 10.1 °C 8.2 °C 1011.1 hPa WSW 5.0 km/h 13.4 km/h 88% 0.0 mm 75 W/m2
10:01 10.2 °C 8.3 °C 1011.1 hPa West 8.7 km/h 13.4 km/h 88% 0.0 mm 86 W/m2
10:06 10.2 °C 8.3 °C 1011.1 hPa West 6.1 km/h 14.8 km/h 88% 0.0 mm 77 W/m2
10:11 10.2 °C 8.3 °C 1011.4 hPa West 3.5 km/h 14.8 km/h 88% 0.0 mm 93 W/m2
10:16 10.3 °C 8.4 °C 1011.4 hPa WNW 7.2 km/h 11.1 km/h 88% 0.0 mm 94 W/m2
10:21 10.3 °C 8.4 °C 1011.1 hPa WNW 5.0 km/h 11.1 km/h 88% 0.3 mm 89 W/m2
10:26 10.4 °C 8.3 °C 1011.4 hPa WNW 7.2 km/h 11.1 km/h 87% 0.3 mm 83 W/m2
10:31 10.5 °C 8.3 °C 1011.4 hPa WNW 3.5 km/h 11.1 km/h 86% 0.3 mm 87 W/m2
10:36 10.6 °C 8.6 °C 1011.4 hPa NW 3.5 km/h 11.1 km/h 87% 0.3 mm 103 W/m2
10:41 10.7 °C 8.6 °C 1011.1 hPa NNW 1.1 km/h 8.7 km/h 87% 0.3 mm 106 W/m2
10:46 10.9 °C 8.7 °C 1011.4 hPa NW 6.1 km/h 8.7 km/h 86% 0.3 mm 124 W/m2
10:51 11.1 °C 8.5 °C 1011.4 hPa WNW 3.5 km/h 7.2 km/h 84% 0.3 mm 172 W/m2
10:56 11.6 °C 9.0 °C 1011.4 hPa NW 2.6 km/h 7.2 km/h 84% 0.3 mm 155 W/m2
11:01 11.8 °C 9.0 °C 1011.4 hPa NW 2.6 km/h 7.2 km/h 83% 0.3 mm 105 W/m2
11:06 11.7 °C 8.7 °C 1011.4 hPa NW 2.6 km/h 9.7 km/h 82% 0.3 mm 129 W/m2
11:11 11.7 °C 8.7 °C 1011.4 hPa NW 2.6 km/h 9.7 km/h 82% 0.3 mm 118 W/m2
11:16 11.6 °C 8.3 °C 1011.4 hPa NW 2.6 km/h 8.7 km/h 80% 0.3 mm 146 W/m2
11:21 12.0 °C 8.7 °C 1011.4 hPa WNW 2.6 km/h 8.7 km/h 80% 0.0 mm 176 W/m2
11:26 12.1 °C 8.4 °C 1011.4 hPa SW 5.0 km/h 11.1 km/h 78% 0.0 mm 131 W/m2
11:31 11.9 °C 8.2 °C 1011.4 hPa WSW 7.2 km/h 12.2 km/h 78% 0.0 mm 115 W/m2
11:36 11.6 °C 8.1 °C 1011.1 hPa WSW 6.1 km/h 13.4 km/h 79% 0.0 mm 97 W/m2
11:41 11.3 °C 8.0 °C 1011.1 hPa West 3.5 km/h 13.4 km/h 80% 0.0 mm 122 W/m2
11:46 11.3 °C 8.2 °C 1011.1 hPa WNW 3.5 km/h 9.7 km/h 81% 0.0 mm 89 W/m2
11:51 11.4 °C 8.3 °C 1011.1 hPa WNW 3.5 km/h 8.7 km/h 81% 0.0 mm 92 W/m2
11:56 11.4 °C 8.3 °C 1011.1 hPa WNW 3.5 km/h 7.2 km/h 81% 0.0 mm 71 W/m2
12:01 11.4 °C 8.3 °C 1011.1 hPa WSW 7.2 km/h 8.7 km/h 81% 0.0 mm 62 W/m2
12:06 11.2 °C 7.9 °C 1011.1 hPa WSW 3.5 km/h 8.7 km/h 80% 0.0 mm 62 W/m2
12:11 11.2 °C 7.9 °C 1011.1 hPa West 2.6 km/h 8.7 km/h 80% 0.0 mm 70 W/m2
12:16 11.1 °C 7.8 °C 1011.1 hPa WSW 6.1 km/h 9.7 km/h 80% 0.0 mm 84 W/m2
12:21 11.2 °C 7.7 °C 1010.7 hPa West 5.0 km/h 12.2 km/h 79% 0.0 mm 103 W/m2
12:26 11.4 °C 7.7 °C 1010.7 hPa West 3.5 km/h 13.4 km/h 78% 0.0 mm 113 W/m2
12:31 11.5 °C 7.6 °C 1010.7 hPa West 7.2 km/h 13.4 km/h 77% 0.0 mm 91 W/m2
12:36 11.6 °C 7.7 °C 1010.7 hPa West 6.1 km/h 12.2 km/h 77% 0.0 mm 91 W/m2
12:41 11.5 °C 7.4 °C 1010.7 hPa WSW 5.0 km/h 13.4 km/h 76% 0.0 mm 113 W/m2
12:46 11.6 °C 7.5 °C 1010.7 hPa WSW 8.7 km/h 13.4 km/h 76% 0.0 mm 129 W/m2
12:51 11.7 °C 7.6 °C 1010.7 hPa WSW 6.1 km/h 12.2 km/h 76% 0.0 mm 150 W/m2
12:56 11.9 °C 7.8 °C 1010.7 hPa WSW 3.5 km/h 12.2 km/h 76% 0.0 mm 147 W/m2
13:01 12.1 °C 7.8 °C 1010.7 hPa WSW 5.0 km/h 9.7 km/h 75% 0.0 mm 130 W/m2
13:06 12.0 °C 7.3 °C 1011.1 hPa WSW 13.4 km/h 18.3 km/h 73% 0.0 mm 144 W/m2
13:11 12.0 °C 7.3 °C 1010.7 hPa SW 15.8 km/h 21.9 km/h 73% 0.0 mm 109 W/m2
13:16 11.9 °C 7.2 °C 1010.7 hPa SW 11.1 km/h 21.9 km/h 73% 0.0 mm 108 W/m2
13:21 11.9 °C 7.2 °C 1010.7 hPa SW 9.7 km/h 21.9 km/h 73% 0.0 mm 110 W/m2
13:26 11.8 °C 7.3 °C 1010.7 hPa SW 9.7 km/h 21.9 km/h 74% 0.0 mm 103 W/m2
13:31 11.5 °C 7.1 °C 1010.7 hPa WSW 11.1 km/h 21.9 km/h 74% 0.0 mm 92 W/m2
13:37 11.5 °C 7.2 °C 1010.7 hPa WSW 8.7 km/h 21.9 km/h 75% 0.0 mm 106 W/m2
13:42 11.6 °C 7.3 °C 1010.7 hPa WSW 12.2 km/h 15.8 km/h 75% 0.0 mm 110 W/m2
13:47 11.8 °C 7.3 °C 1010.7 hPa WSW 11.1 km/h 15.8 km/h 74% 0.0 mm 109 W/m2
13:52 11.8 °C 7.3 °C 1010.7 hPa WSW 3.5 km/h 15.8 km/h 74% 0.0 mm 111 W/m2
13:57 11.9 °C 7.2 °C 1010.7 hPa WSW 8.7 km/h 15.8 km/h 73% 0.0 mm 136 W/m2
14:02 12.3 °C 7.4 °C 1010.7 hPa WSW 7.2 km/h 15.8 km/h 72% 0.0 mm 180 W/m2
14:07 13.1 °C 7.6 °C 1010.7 hPa SW 8.7 km/h 15.8 km/h 69% 0.0 mm 149 W/m2
14:12 12.9 °C 7.3 °C 1011.1 hPa SW 14.8 km/h 19.5 km/h 69% 0.0 mm 144 W/m2
14:17 12.5 °C 6.8 °C 1010.7 hPa WSW 14.8 km/h 19.5 km/h 68% 0.0 mm 101 W/m2
14:22 12.4 °C 6.4 °C 1010.7 hPa SW 12.2 km/h 19.5 km/h 67% 0.0 mm 88 W/m2
14:27 12.2 °C 6.3 °C 1010.7 hPa SW 11.1 km/h 20.9 km/h 67% 0.0 mm 90 W/m2
14:32 12.2 °C 6.3 °C 1011.1 hPa SW 6.1 km/h 20.9 km/h 67% 0.0 mm 98 W/m2
14:37 12.2 °C 6.3 °C 1011.1 hPa SW 13.4 km/h 20.9 km/h 67% 0.0 mm 89 W/m2
14:42 12.2 °C 6.1 °C 1010.7 hPa SW 9.7 km/h 19.5 km/h 66% 0.0 mm 83 W/m2
14:47 12.2 °C 6.1 °C 1010.7 hPa SW 8.7 km/h 17.2 km/h 66% 0.0 mm 82 W/m2
14:52 12.2 °C 6.3 °C 1011.1 hPa SW 11.1 km/h 17.2 km/h 67% 0.0 mm 85 W/m2
14:57 12.2 °C 6.7 °C 1011.1 hPa SW 12.2 km/h 15.8 km/h 69% 0.0 mm 75 W/m2
15:02 12.2 °C 6.7 °C 1010.7 hPa SW 14.8 km/h 18.3 km/h 69% 0.0 mm 75 W/m2
15:07 12.2 °C 6.7 °C 1011.1 hPa WSW 9.7 km/h 18.3 km/h 69% 0.0 mm 80 W/m2
15:12 12.2 °C 6.9 °C 1011.1 hPa WSW 12.2 km/h 15.8 km/h 70% 0.0 mm 85 W/m2
15:17 12.2 °C 6.9 °C 1011.1 hPa SW 9.7 km/h 15.8 km/h 70% 0.0 mm 82 W/m2
15:22 12.2 °C 6.9 °C 1011.1 hPa WSW 6.1 km/h 15.8 km/h 70% 0.0 mm 58 W/m2
15:27 12.2 °C 6.9 °C 1011.1 hPa West 6.1 km/h 13.4 km/h 70% 0.0 mm 41 W/m2
15:43 12.1 °C 7.2 °C 1011.1 hPa SW 9.7 km/h 18.3 km/h 72% 0.0 mm 29 W/m2
15:48 12.1 °C 7.4 °C 1011.1 hPa SW 8.7 km/h 14.8 km/h 73% 0.0 mm 27 W/m2
15:53 12.0 °C 7.5 °C 1011.4 hPa SW 9.7 km/h 18.3 km/h 74% 0.0 mm 30 W/m2
15:58 12.0 °C 7.5 °C 1011.4 hPa SW 8.7 km/h 18.3 km/h 74% 0.0 mm 27 W/m2
16:03 12.0 °C 7.7 °C 1011.4 hPa SW 7.2 km/h 18.3 km/h 75% 0.0 mm 26 W/m2
16:08 12.0 °C 7.5 °C 1011.4 hPa SSW 6.1 km/h 14.8 km/h 74% 0.0 mm 22 W/m2
16:13 12.0 °C 7.5 °C 1011.4 hPa SSW 7.2 km/h 17.2 km/h 74% 0.0 mm 20 W/m2
16:18 12.0 °C 7.5 °C 1011.4 hPa SSW 11.1 km/h 17.2 km/h 74% 0.0 mm 14 W/m2
16:23 12.0 °C 7.5 °C 1011.7 hPa SW 8.7 km/h 17.2 km/h 74% 0.0 mm 14 W/m2
16:28 12.0 °C 7.5 °C 1011.7 hPa SW 8.7 km/h 20.9 km/h 74% 0.0 mm 13 W/m2
16:33 12.0 °C 7.3 °C 1011.4 hPa SW 3.5 km/h 20.9 km/h 73% 0.0 mm 9 W/m2
16:38 12.0 °C 7.5 °C 1011.4 hPa SW 7.2 km/h 15.8 km/h 74% 0.0 mm 4 W/m2
16:43 12.0 °C 7.7 °C 1011.7 hPa SW 6.1 km/h 15.8 km/h 75% 0.0 mm 2 W/m2
16:48 12.0 °C 7.7 °C 1011.7 hPa SW 9.7 km/h 14.8 km/h 75% 0.0 mm 1 W/m2
16:53 12.0 °C 7.7 °C 1011.7 hPa SW 9.7 km/h 14.8 km/h 75% 0.0 mm 0 W/m2
16:58 12.0 °C 7.7 °C 1011.4 hPa SSW 5.0 km/h 14.8 km/h 75% 0.0 mm 0 W/m2
17:03 12.0 °C 7.7 °C 1011.7 hPa SSW 6.1 km/h 14.8 km/h 75% 0.0 mm 0 W/m2
17:08 12.0 °C 7.7 °C 1012.1 hPa SSW 8.7 km/h 14.8 km/h 75% 0.0 mm 0 W/m2
17:13 11.8 °C 7.9 °C 1011.7 hPa SSW 8.7 km/h 14.8 km/h 77% 0.0 mm 0 W/m2
17:18 11.8 °C 7.9 °C 1012.1 hPa SSW 3.5 km/h 14.8 km/h 77% 0.0 mm 0 W/m2
17:23 11.8 °C 7.9 °C 1012.1 hPa SW 6.1 km/h 12.2 km/h 77% 0.0 mm 0 W/m2
17:28 11.8 °C 7.7 °C 1012.1 hPa SW 5.0 km/h 13.4 km/h 76% 0.0 mm 0 W/m2
17:33 11.8 °C 7.7 °C 1012.1 hPa SW 5.0 km/h 13.4 km/h 76% 0.0 mm 0 W/m2
17:38 11.9 °C 7.8 °C 1012.1 hPa SSW 7.2 km/h 12.2 km/h 76% 0.0 mm 0 W/m2
17:43 11.9 °C 8.0 °C 1012.4 hPa SSW 1.1 km/h 12.2 km/h 77% 0.0 mm 0 W/m2
17:48 11.9 °C 8.0 °C 1012.1 hPa SW 7.2 km/h 11.1 km/h 77% 0.0 mm 0 W/m2
17:53 11.9 °C 8.0 °C 1012.4 hPa SW 3.5 km/h 11.1 km/h 77% 0.0 mm 0 W/m2
17:58 11.9 °C 8.2 °C 1012.4 hPa SW 1.1 km/h 11.1 km/h 78% 0.0 mm 0 W/m2
18:03 11.9 °C 8.2 °C 1012.8 hPa South 2.6 km/h 7.2 km/h 78% 0.0 mm 0 W/m2
18:08 11.7 °C 8.0 °C 1012.8 hPa ENE 3.5 km/h 6.1 km/h 78% 0.0 mm 0 W/m2
18:13 11.3 °C 7.8 °C 1012.8 hPa NE 2.6 km/h 6.1 km/h 79% 0.0 mm 0 W/m2
18:18 11.1 °C 8.2 °C 1012.8 hPa ENE 5.0 km/h 8.7 km/h 82% 0.0 mm 0 W/m2
18:23 10.8 °C 8.2 °C 1012.8 hPa Calm   8.7 km/h 84% 0.0 mm 0 W/m2
18:29 10.7 °C 8.3 °C 1012.8 hPa NNE 1.1 km/h 7.2 km/h 85% 0.0 mm 0 W/m2
18:34 10.6 °C 8.3 °C 1013.1 hPa NNE 2.6 km/h 7.2 km/h 86% 0.0 mm 0 W/m2
18:39 10.5 °C 8.4 °C 1012.8 hPa NNE 8.7 km/h 9.7 km/h 87% 0.0 mm 0 W/m2
18:44 10.3 °C 8.6 °C 1013.1 hPa North 1.1 km/h 9.7 km/h 89% 0.3 mm 0 W/m2
18:49 10.3 °C 8.7 °C 1012.8 hPa NNE 3.5 km/h 9.7 km/h 90% 1.3 mm 0 W/m2
18:54 10.1 °C 8.7 °C 1013.1 hPa NE 7.2 km/h 9.7 km/h 91% 1.8 mm 0 W/m2
18:59 10.0 °C 8.8 °C 1013.1 hPa NE 2.6 km/h 9.7 km/h 92% 2.3 mm 0 W/m2
19:04 9.9 °C 8.8 °C 1013.1 hPa NNE 2.6 km/h 7.2 km/h 93% 3.0 mm 0 W/m2
19:09 9.8 °C 8.9 °C 1013.1 hPa NNE 6.1 km/h 8.7 km/h 94% 3.8 mm 0 W/m2
19:14 9.7 °C 8.8 °C 1013.1 hPa North 1.1 km/h 8.7 km/h 94% 4.6 mm 0 W/m2
19:19 9.7 °C 8.8 °C 1013.1 hPa NNE 1.1 km/h 8.7 km/h 94% 4.8 mm 0 W/m2
19:24 9.7 °C 8.9 °C 1013.4 hPa NNE 3.5 km/h 6.1 km/h 95% 4.8 mm 0 W/m2
19:29 9.6 °C 8.8 °C 1013.4 hPa NNE 1.1 km/h 6.1 km/h 95% 4.8 mm 0 W/m2
19:34 9.6 °C 8.8 °C 1013.4 hPa Calm   5.0 km/h 95% 5.1 mm 0 W/m2
19:39 9.5 °C 8.7 °C 1013.4 hPa NNE 1.1 km/h 5.0 km/h 95% 5.6 mm 0 W/m2
19:44 9.5 °C 8.7 °C 1013.4 hPa NNE 3.5 km/h 6.1 km/h 95% 5.6 mm 0 W/m2
19:49 9.5 °C 8.7 °C 1013.4 hPa NNE 1.1 km/h 6.1 km/h 95% 4.8 mm 0 W/m2
19:54 9.5 °C 8.9 °C 1013.4 hPa North 2.6 km/h 6.1 km/h 96% 4.3 mm 0 W/m2
19:59 9.5 °C 8.9 °C 1013.4 hPa NNE 3.5 km/h 6.1 km/h 96% 3.8 mm 0 W/m2
20:04 9.5 °C 8.9 °C 1013.4 hPa North 5.0 km/h 7.2 km/h 96% 3.0 mm 0 W/m2
20:09 9.5 °C 8.9 °C 1013.4 hPa NNW 3.5 km/h 7.2 km/h 96% 2.8 mm 0 W/m2
20:14 9.5 °C 9.1 °C 1013.8 hPa NNW 5.0 km/h 8.7 km/h 97% 2.0 mm 0 W/m2
20:19 9.5 °C 9.1 °C 1013.8 hPa NW 3.5 km/h 8.7 km/h 97% 1.8 mm 0 W/m2
20:24 9.5 °C 9.1 °C 1013.8 hPa NNW 2.6 km/h 8.7 km/h 97% 1.8 mm 0 W/m2
20:29 9.5 °C 9.1 °C 1014.1 hPa NNW 3.5 km/h 8.7 km/h 97% 2.0 mm 0 W/m2
20:34 9.5 °C 9.1 °C 1014.1 hPa NNW 6.1 km/h 8.7 km/h 97% 1.5 mm 0 W/m2
20:39 9.5 °C 9.1 °C 1014.1 hPa NNW 5.0 km/h 11.1 km/h 97% 1.3 mm 0 W/m2
20:44 9.4 °C 9.1 °C 1013.8 hPa NW 6.1 km/h 12.2 km/h 98% 1.3 mm 0 W/m2
20:49 9.4 °C 9.1 °C 1014.1 hPa NNW 6.1 km/h 12.2 km/h 98% 1.3 mm 0 W/m2
20:54 9.4 °C 9.1 °C 1014.1 hPa NNW 5.0 km/h 9.7 km/h 98% 1.0 mm 0 W/m2
20:59 9.3 °C 9.0 °C 1014.1 hPa North 5.0 km/h 11.1 km/h 98% 1.0 mm 0 W/m2
21:15 9.4 °C 9.1 °C 1014.1 hPa NNW 3.5 km/h 6.1 km/h 98% 1.0 mm 0 W/m2
21:20 9.4 °C 9.3 °C 1014.1 hPa NNW 2.6 km/h 6.1 km/h 99% 1.0 mm 0 W/m2
21:25 9.4 °C 9.3 °C 1014.1 hPa NW 3.5 km/h 6.1 km/h 99% 1.0 mm 0 W/m2
21:30 9.3 °C 9.2 °C 1014.1 hPa NNW 2.6 km/h 6.1 km/h 99% 1.0 mm 0 W/m2
21:35 9.3 °C 9.2 °C 1014.4 hPa NNW 3.5 km/h 6.1 km/h 99% 1.0 mm 0 W/m2
21:40 9.3 °C 9.2 °C 1014.4 hPa NNW 6.1 km/h 7.2 km/h 99% 1.0 mm 0 W/m2
21:45 9.2 °C 9.1 °C 1014.4 hPa NNW 2.6 km/h 7.2 km/h 99% 0.5 mm 0 W/m2
21:50 9.2 °C 9.1 °C 1014.4 hPa NNW 3.5 km/h 7.2 km/h 99% 1.0 mm 0 W/m2
22:06 9.2 °C 9.1 °C 1014.1 hPa NNW 2.6 km/h 8.7 km/h 99% 1.0 mm 0 W/m2
22:11 9.1 °C 8.9 °C 1014.1 hPa NNW 5.0 km/h 7.2 km/h 99% 0.5 mm 0 W/m2
22:16 9.1 °C 8.9 °C 1014.4 hPa NNW 3.5 km/h 7.2 km/h 99% 0.5 mm 0 W/m2
22:21 9.1 °C 8.9 °C 1014.4 hPa NNW 6.1 km/h 7.2 km/h 99% 0.5 mm 0 W/m2
22:26 9.1 °C 8.9 °C 1014.4 hPa NNW 3.5 km/h 7.2 km/h 99% 0.5 mm 0 W/m2
22:31 9.1 °C 8.9 °C 1014.4 hPa NNW 3.5 km/h 7.2 km/h 99% 0.3 mm 0 W/m2
22:36 9.1 °C 8.9 °C 1014.4 hPa NNW 2.6 km/h 7.2 km/h 99% 0.3 mm 0 W/m2
22:41 9.1 °C 8.9 °C 1014.4 hPa NNW 3.5 km/h 7.2 km/h 99% 0.3 mm 0 W/m2
22:46 9.1 °C 8.9 °C 1014.4 hPa NNW 1.1 km/h 7.2 km/h 99% 0.3 mm 0 W/m2
22:52 9.0 °C 8.8 °C 1014.4 hPa NNW 1.1 km/h 6.1 km/h 99% 0.0 mm 0 W/m2
22:57 9.0 °C 8.8 °C 1014.4 hPa NNW 2.6 km/h 5.0 km/h 99% 0.0 mm 0 W/m2
23:02 8.9 °C 8.8 °C 1014.4 hPa NNW 2.6 km/h 5.0 km/h 99% 0.0 mm 0 W/m2
23:07 8.9 °C 8.8 °C 1014.4 hPa North 1.1 km/h 5.0 km/h 99% 0.0 mm 0 W/m2
23:12 8.8 °C 8.7 °C 1014.4 hPa Calm   5.0 km/h 99% 0.0 mm 0 W/m2
23:17 8.7 °C 8.6 °C 1014.4 hPa North 1.1 km/h 2.6 km/h 99% 0.0 mm 0 W/m2
23:22 8.7 °C 8.6 °C 1014.4 hPa Calm   2.6 km/h 99% 0.0 mm 0 W/m2
23:27 8.7 °C 8.6 °C 1014.8 hPa Calm   2.6 km/h 99% 0.0 mm 0 W/m2
23:32 8.7 °C 8.6 °C 1014.8 hPa Calm   1.1 km/h 99% 0.0 mm 0 W/m2
23:37 8.8 °C 8.7 °C 1014.8 hPa Calm   1.1 km/h 99% 0.0 mm 0 W/m2
23:54 8.9 °C 8.8 °C 1014.8 hPa Calm   3.5 km/h 99% 0.0 mm 0 W/m2
23:59 8.9 °C 8.8 °C 1014.8 hPa Calm   2.6 km/h 99% 0.0 mm 0 W/m2
Northern Hawkes Bay. New Zealand Historic Data
Compliments of Weather Underground - 2 mb